sensor_id;sensor_type;location;lat;lon;timestamp;pressure;altitude;pressure_sealevel;temperature;humidity
13594;BME280;6449;47.666;9.160;2023-07-13T00:03:40;96966.91;;;19.45;100.00
13594;BME280;6449;47.666;9.160;2023-07-13T00:08:35;96976.69;;;19.53;100.00
13594;BME280;6449;47.666;9.160;2023-07-13T00:13:30;96975.19;;;19.67;100.00
13594;BME280;6449;47.666;9.160;2023-07-13T00:18:23;96975.81;;;19.77;100.00
13594;BME280;6449;47.666;9.160;2023-07-13T00:23:21;96984.03;;;19.51;100.00
13594;BME280;6449;47.666;9.160;2023-07-13T00:28:19;96970.84;;;19.57;100.00
13594;BME280;6449;47.666;9.160;2023-07-13T00:33:12;96984.03;;;19.51;100.00
13594;BME280;6449;47.666;9.160;2023-07-13T00:38:09;96982.69;;;19.47;100.00
13594;BME280;6449;47.666;9.160;2023-07-13T00:43:10;96975.03;;;19.52;100.00
13594;BME280;6449;47.666;9.160;2023-07-13T00:48:05;96976.41;;;19.40;100.00
13594;BME280;6449;47.666;9.160;2023-07-13T00:52:59;96973.06;;;19.37;100.00
13594;BME280;6449;47.666;9.160;2023-07-13T00:57:52;96986.03;;;19.32;100.00
13594;BME280;6449;47.666;9.160;2023-07-13T01:02:48;96989.38;;;19.34;100.00
13594;BME280;6449;47.666;9.160;2023-07-13T01:07:44;96982.22;;;19.35;100.00
13594;BME280;6449;47.666;9.160;2023-07-13T01:12:38;96997.16;;;19.36;100.00
13594;BME280;6449;47.666;9.160;2023-07-13T01:17:33;96988.53;;;19.34;100.00
13594;BME280;6449;47.666;9.160;2023-07-13T01:22:28;96997.50;;;19.41;100.00
13594;BME280;6449;47.666;9.160;2023-07-13T01:27:26;97004.47;;;19.50;100.00
13594;BME280;6449;47.666;9.160;2023-07-13T01:32:23;96999.66;;;19.46;100.00
13594;BME280;6449;47.666;9.160;2023-07-13T01:37:17;96991.31;;;19.49;100.00
13594;BME280;6449;47.666;9.160;2023-07-13T01:42:12;96975.34;;;19.49;100.00
13594;BME280;6449;47.666;9.160;2023-07-13T01:47:06;96954.09;;;19.49;100.00
13594;BME280;6449;47.666;9.160;2023-07-13T01:51:59;96951.09;;;19.60;100.00
13594;BME280;6449;47.666;9.160;2023-07-13T01:56:53;96954.06;;;19.57;100.00
13594;BME280;6449;47.666;9.160;2023-07-13T02:01:48;96952.78;;;19.45;100.00
13594;BME280;6449;47.666;9.160;2023-07-13T02:06:41;96955.59;;;19.43;100.00
13594;BME280;6449;47.666;9.160;2023-07-13T02:11:34;96970.41;;;19.37;100.00
13594;BME280;6449;47.666;9.160;2023-07-13T02:16:28;96965.13;;;19.29;100.00
13594;BME280;6449;47.666;9.160;2023-07-13T02:21:24;96973.41;;;19.26;100.00
13594;BME280;6449;47.666;9.160;2023-07-13T02:26:17;96978.09;;;19.24;100.00
13594;BME280;6449;47.666;9.160;2023-07-13T02:31:14;96985.25;;;19.24;100.00
13594;BME280;6449;47.666;9.160;2023-07-13T02:36:09;96990.53;;;19.32;100.00
13594;BME280;6449;47.666;9.160;2023-07-13T02:41:05;96991.34;;;19.32;100.00
13594;BME280;6449;47.666;9.160;2023-07-13T02:45:59;96982.72;;;19.30;100.00
13594;BME280;6449;47.666;9.160;2023-07-13T02:50:59;96990.06;;;19.28;100.00
13594;BME280;6449;47.666;9.160;2023-07-13T02:55:52;96982.03;;;19.36;100.00
13594;BME280;6449;47.666;9.160;2023-07-13T03:00:48;96980.38;;;19.35;100.00
13594;BME280;6449;47.666;9.160;2023-07-13T03:05:45;96977.56;;;19.37;100.00
13594;BME280;6449;47.666;9.160;2023-07-13T03:10:42;96982.53;;;19.32;100.00
13594;BME280;6449;47.666;9.160;2023-07-13T03:15:36;96979.56;;;19.27;100.00
13594;BME280;6449;47.666;9.160;2023-07-13T03:20:33;96982.88;;;19.37;100.00
13594;BME280;6449;47.666;9.160;2023-07-13T03:25:26;96991.34;;;19.32;100.00
13594;BME280;6449;47.666;9.160;2023-07-13T03:30:20;96997.00;;;19.37;100.00
13594;BME280;6449;47.666;9.160;2023-07-13T03:35:13;96995.50;;;19.35;100.00
13594;BME280;6449;47.666;9.160;2023-07-13T03:40:09;96997.00;;;19.46;100.00
13594;BME280;6449;47.666;9.160;2023-07-13T03:45:05;97003.81;;;19.40;100.00
13594;BME280;6449;47.666;9.160;2023-07-13T03:49:58;97006.16;;;19.35;100.00
13594;BME280;6449;47.666;9.160;2023-07-13T03:54:51;97006.66;;;19.30;100.00
13594;BME280;6449;47.666;9.160;2023-07-13T03:59:46;97011.50;;;19.19;100.00
13594;BME280;6449;47.666;9.160;2023-07-13T04:04:40;97001.03;;;19.09;100.00
13594;BME280;6449;47.666;9.160;2023-07-13T04:09:33;97010.00;;;19.08;100.00
13594;BME280;6449;47.666;9.160;2023-07-13T04:14:26;97009.16;;;19.07;100.00
13594;BME280;6449;47.666;9.160;2023-07-13T04:19:21;97001.34;;;19.14;100.00
13594;BME280;6449;47.666;9.160;2023-07-13T04:24:15;97005.50;;;19.17;100.00
13594;BME280;6449;47.666;9.160;2023-07-13T04:29:08;97005.34;;;19.18;100.00
13594;BME280;6449;47.666;9.160;2023-07-13T04:34:01;97017.28;;;19.22;100.00
13594;BME280;6449;47.666;9.160;2023-07-13T04:38:56;97026.25;;;19.21;100.00
13594;BME280;6449;47.666;9.160;2023-07-13T04:43:50;97035.88;;;19.22;100.00
13594;BME280;6449;47.666;9.160;2023-07-13T04:48:46;97041.19;;;19.22;100.00
13594;BME280;6449;47.666;9.160;2023-07-13T04:53:43;97036.56;;;19.24;100.00
13594;BME280;6449;47.666;9.160;2023-07-13T04:58:37;97031.72;;;19.28;100.00
13594;BME280;6449;47.666;9.160;2023-07-13T05:03:32;97039.19;;;19.32;100.00
13594;BME280;6449;47.666;9.160;2023-07-13T05:08:27;97046.22;;;19.33;100.00
13594;BME280;6449;47.666;9.160;2023-07-13T05:13:21;97046.03;;;19.35;100.00
13594;BME280;6449;47.666;9.160;2023-07-13T05:18:18;97049.00;;;19.48;100.00
13594;BME280;6449;47.666;9.160;2023-07-13T05:23:11;97061.81;;;19.45;100.00
13594;BME280;6449;47.666;9.160;2023-07-13T05:28:05;97072.94;;;19.56;100.00
13594;BME280;6449;47.666;9.160;2023-07-13T05:32:58;97076.25;;;19.58;100.00
13594;BME280;6449;47.666;9.160;2023-07-13T05:37:53;97072.28;;;19.62;100.00
13594;BME280;6449;47.666;9.160;2023-07-13T05:42:46;97078.94;;;19.67;100.00
13594;BME280;6449;47.666;9.160;2023-07-13T05:47:40;97072.78;;;19.66;100.00
13594;BME280;6449;47.666;9.160;2023-07-13T05:52:35;97075.41;;;19.74;100.00
13594;BME280;6449;47.666;9.160;2023-07-13T05:57:31;97077.75;;;19.77;100.00
13594;BME280;6449;47.666;9.160;2023-07-13T06:02:24;97092.72;;;19.70;100.00
13594;BME280;6449;47.666;9.160;2023-07-13T06:07:18;97096.06;;;19.72;100.00
13594;BME280;6449;47.666;9.160;2023-07-13T06:12:12;97095.03;;;19.65;100.00
13594;BME280;6449;47.666;9.160;2023-07-13T06:17:07;97101.50;;;19.54;100.00
13594;BME280;6449;47.666;9.160;2023-07-13T06:22:01;97109.81;;;19.43;100.00
13594;BME280;6449;47.666;9.160;2023-07-13T06:26:55;97114.50;;;19.41;100.00
13594;BME280;6449;47.666;9.160;2023-07-13T06:31:48;97131.28;;;19.33;100.00
13594;BME280;6449;47.666;9.160;2023-07-13T06:36:44;97137.25;;;19.35;100.00
13594;BME280;6449;47.666;9.160;2023-07-13T06:41:37;97139.75;;;19.29;100.00
13594;BME280;6449;47.666;9.160;2023-07-13T06:46:31;97151.03;;;19.31;100.00
13594;BME280;6449;47.666;9.160;2023-07-13T06:51:24;97144.38;;;19.27;100.00
13594;BME280;6449;47.666;9.160;2023-07-13T06:56:20;97160.19;;;19.28;100.00
13594;BME280;6449;47.666;9.160;2023-07-13T07:01:13;97182.72;;;19.00;100.00
13594;BME280;6449;47.666;9.160;2023-07-13T07:06:16;97187.84;;;19.01;100.00
13594;BME280;6449;47.666;9.160;2023-07-13T07:11:13;97195.34;;;18.98;100.00
13594;BME280;6449;47.666;9.160;2023-07-13T07:16:08;97195.19;;;19.07;100.00
13594;BME280;6449;47.666;9.160;2023-07-13T07:21:02;97201.78;;;18.95;100.00
13594;BME280;6449;47.666;9.160;2023-07-13T07:25:56;97195.50;;;19.04;100.00
13594;BME280;6449;47.666;9.160;2023-07-13T07:30:52;97200.59;;;18.90;100.00
13594;BME280;6449;47.666;9.160;2023-07-13T07:36:07;97186.47;;;18.81;100.00
13594;BME280;6449;47.666;9.160;2023-07-13T07:41:04;97199.75;;;18.81;100.00
13594;BME280;6449;47.666;9.160;2023-07-13T07:46:01;97200.25;;;18.76;100.00
13594;BME280;6449;47.666;9.160;2023-07-13T07:50:55;97192.88;;;19.13;100.00
13594;BME280;6449;47.666;9.160;2023-07-13T07:55:50;97197.09;;;19.48;100.00
13594;BME280;6449;47.666;9.160;2023-07-13T08:00:47;97208.34;;;19.25;100.00
13594;BME280;6449;47.666;9.160;2023-07-13T08:05:43;97207.97;;;19.12;100.00
13594;BME280;6449;47.666;9.160;2023-07-13T08:11:02;97210.50;;;19.14;100.00
13594;BME280;6449;47.666;9.160;2023-07-13T08:16:16;97224.78;;;19.13;100.00
13594;BME280;6449;47.666;9.160;2023-07-13T08:21:09;97227.75;;;19.09;100.00
13594;BME280;6449;47.666;9.160;2023-07-13T08:26:05;97223.75;;;18.97;100.00
13594;BME280;6449;47.666;9.160;2023-07-13T08:31:01;97214.81;;;19.23;100.00
13594;BME280;6449;47.666;9.160;2023-07-13T08:35:55;97213.72;;;19.50;100.00
13594;BME280;6449;47.666;9.160;2023-07-13T08:40:52;97225.56;;;19.80;100.00
13594;BME280;6449;47.666;9.160;2023-07-13T08:45:53;97214.75;;;19.81;100.00
13594;BME280;6449;47.666;9.160;2023-07-13T08:51:02;97231.34;;;20.32;100.00
13594;BME280;6449;47.666;9.160;2023-07-13T08:55:59;97230.56;;;21.27;100.00
13594;BME280;6449;47.666;9.160;2023-07-13T09:01:04;97228.34;;;21.61;100.00
13594;BME280;6449;47.666;9.160;2023-07-13T09:06:00;97222.00;;;21.62;100.00
13594;BME280;6449;47.666;9.160;2023-07-13T09:11:10;97249.25;;;21.81;100.00
13594;BME280;6449;47.666;9.160;2023-07-13T09:16:10;97245.81;;;21.95;100.00
13594;BME280;6449;47.666;9.160;2023-07-13T09:21:10;97251.69;;;21.90;100.00
13594;BME280;6449;47.666;9.160;2023-07-13T09:26:13;97257.38;;;21.64;100.00
13594;BME280;6449;47.666;9.160;2023-07-13T09:31:15;97247.44;;;21.50;100.00
13594;BME280;6449;47.666;9.160;2023-07-13T09:36:20;97240.81;;;21.07;100.00
13594;BME280;6449;47.666;9.160;2023-07-13T09:41:27;97247.03;;;21.61;100.00
13594;BME280;6449;47.666;9.160;2023-07-13T09:46:24;97239.22;;;21.60;100.00
13594;BME280;6449;47.666;9.160;2023-07-13T09:51:17;97252.59;;;21.21;100.00
13594;BME280;6449;47.666;9.160;2023-07-13T09:56:20;97248.31;;;21.03;100.00
13594;BME280;6449;47.666;9.160;2023-07-13T10:01:14;97263.78;;;20.60;100.00
13594;BME280;6449;47.666;9.160;2023-07-13T10:06:16;97266.44;;;20.60;100.00
13594;BME280;6449;47.666;9.160;2023-07-13T10:11:17;97270.63;;;20.38;100.00
13594;BME280;6449;47.666;9.160;2023-07-13T10:16:12;97261.84;;;20.05;100.00
13594;BME280;6449;47.666;9.160;2023-07-13T10:21:16;97267.47;;;20.19;100.00
13594;BME280;6449;47.666;9.160;2023-07-13T10:26:19;97265.66;;;20.11;100.00
13594;BME280;6449;47.666;9.160;2023-07-13T10:31:16;97263.81;;;20.28;100.00
13594;BME280;6449;47.666;9.160;2023-07-13T10:36:26;97272.78;;;20.59;100.00
13594;BME280;6449;47.666;9.160;2023-07-13T10:41:24;97259.59;;;20.66;100.00
13594;BME280;6449;47.666;9.160;2023-07-13T10:46:25;97258.63;;;20.67;100.00
13594;BME280;6449;47.666;9.160;2023-07-13T10:51:22;97263.72;;;21.24;100.00
13594;BME280;6449;47.666;9.160;2023-07-13T10:56:27;97275.09;;;21.80;100.00
13594;BME280;6449;47.666;9.160;2023-07-13T11:01:24;97259.53;;;21.84;100.00
13594;BME280;6449;47.666;9.160;2023-07-13T11:06:34;97254.41;;;21.82;100.00
13594;BME280;6449;47.666;9.160;2023-07-13T11:11:38;97260.09;;;21.79;100.00
13594;BME280;6449;47.666;9.160;2023-07-13T11:16:44;97278.94;;;21.55;100.00
13594;BME280;6449;47.666;9.160;2023-07-13T11:22:03;97259.16;;;21.41;100.00
13594;BME280;6449;47.666;9.160;2023-07-13T11:27:24;97267.66;;;21.44;100.00
13594;BME280;6449;47.666;9.160;2023-07-13T11:32:29;97261.19;;;21.62;100.00
13594;BME280;6449;47.666;9.160;2023-07-13T11:37:26;97264.44;;;21.80;100.00
13594;BME280;6449;47.666;9.160;2023-07-13T11:42:21;97261.34;;;21.91;100.00
13594;BME280;6449;47.666;9.160;2023-07-13T11:47:20;97259.78;;;21.97;100.00
13594;BME280;6449;47.666;9.160;2023-07-13T11:52:17;97249.88;;;22.06;100.00
13594;BME280;6449;47.666;9.160;2023-07-13T11:57:24;97251.06;;;22.03;100.00
13594;BME280;6449;47.666;9.160;2023-07-13T12:02:30;97237.94;;;21.79;100.00
13594;BME280;6449;47.666;9.160;2023-07-13T12:07:29;97227.59;;;21.76;100.00
13594;BME280;6449;47.666;9.160;2023-07-13T12:12:30;97226.94;;;22.34;100.00
13594;BME280;6449;47.666;9.160;2023-07-13T12:17:25;97223.81;;;22.45;100.00
13594;BME280;6449;47.666;9.160;2023-07-13T12:22:20;97225.19;;;22.41;100.00
13594;BME280;6449;47.666;9.160;2023-07-13T12:27:21;97226.13;;;22.34;100.00
13594;BME280;6449;47.666;9.160;2023-07-13T12:32:18;97228.34;;;22.60;100.00
13594;BME280;6449;47.666;9.160;2023-07-13T12:37:13;97227.06;;;22.85;100.00
13594;BME280;6449;47.666;9.160;2023-07-13T12:42:21;97220.44;;;22.81;100.00
13594;BME280;6449;47.666;9.160;2023-07-13T12:47:21;97203.47;;;22.59;100.00
13594;BME280;6449;47.666;9.160;2023-07-13T12:52:20;97200.34;;;22.70;100.00
13594;BME280;6449;47.666;9.160;2023-07-13T12:57:17;97205.69;;;22.85;100.00
13594;BME280;6449;47.666;9.160;2023-07-13T13:02:29;97198.50;;;22.86;100.00
13594;BME280;6449;47.666;9.160;2023-07-13T13:07:25;97209.09;;;22.94;100.00
13594;BME280;6449;47.666;9.160;2023-07-13T13:12:19;97211.75;;;22.79;100.00
13594;BME280;6449;47.666;9.160;2023-07-13T13:17:20;97199.66;;;22.83;100.00
13594;BME280;6449;47.666;9.160;2023-07-13T13:22:17;97202.66;;;22.88;100.00
13594;BME280;6449;47.666;9.160;2023-07-13T13:27:17;97194.03;;;23.22;100.00
13594;BME280;6449;47.666;9.160;2023-07-13T13:32:14;97187.44;;;23.25;100.00
13594;BME280;6449;47.666;9.160;2023-07-13T13:37:19;97179.91;;;23.14;100.00
13594;BME280;6449;47.666;9.160;2023-07-13T13:42:13;97186.94;;;23.15;100.00
13594;BME280;6449;47.666;9.160;2023-07-13T13:47:23;97180.84;;;23.06;100.00
13594;BME280;6449;47.666;9.160;2023-07-13T13:52:21;97166.28;;;23.09;100.00
13594;BME280;6449;47.666;9.160;2023-07-13T13:57:15;97162.06;;;22.99;100.00
13594;BME280;6449;47.666;9.160;2023-07-13T14:02:23;97155.13;;;23.05;100.00
13594;BME280;6449;47.666;9.160;2023-07-13T14:07:18;97158.81;;;23.04;100.00
13594;BME280;6449;47.666;9.160;2023-07-13T14:12:12;97163.00;;;23.28;100.00
13594;BME280;6449;47.666;9.160;2023-07-13T14:17:20;97167.44;;;23.21;100.00
13594;BME280;6449;47.666;9.160;2023-07-13T14:22:14;97164.47;;;22.94;100.00
13594;BME280;6449;47.666;9.160;2023-07-13T14:27:11;97178.03;;;22.93;100.00
13594;BME280;6449;47.666;9.160;2023-07-13T14:32:09;97170.06;;;22.85;100.00
13594;BME280;6449;47.666;9.160;2023-07-13T14:37:03;97180.22;;;22.89;100.00
13594;BME280;6449;47.666;9.160;2023-07-13T14:41:58;97174.78;;;22.68;100.00
13594;BME280;6449;47.666;9.160;2023-07-13T14:46:53;97174.97;;;22.52;100.00
13594;BME280;6449;47.666;9.160;2023-07-13T14:51:46;97177.19;;;22.63;100.00
13594;BME280;6449;47.666;9.160;2023-07-13T14:56:40;97167.44;;;22.70;100.00
13594;BME280;6449;47.666;9.160;2023-07-13T15:01:37;97173.53;;;22.64;100.00
13594;BME280;6449;47.666;9.160;2023-07-13T15:06:56;97171.09;;;22.69;100.00
13594;BME280;6449;47.666;9.160;2023-07-13T15:11:52;97167.25;;;22.71;100.00
13594;BME280;6449;47.666;9.160;2023-07-13T15:16:47;97169.56;;;22.74;100.00
13594;BME280;6449;47.666;9.160;2023-07-13T15:21:46;97167.97;;;22.80;100.00
13594;BME280;6449;47.666;9.160;2023-07-13T15:26:40;97162.53;;;22.73;100.00
13594;BME280;6449;47.666;9.160;2023-07-13T15:31:37;97176.16;;;22.79;100.00
13594;BME280;6449;47.666;9.160;2023-07-13T15:36:31;97163.63;;;22.79;100.00
13594;BME280;6449;47.666;9.160;2023-07-13T15:41:28;97163.72;;;22.86;100.00
13594;BME280;6449;47.666;9.160;2023-07-13T15:46:24;97159.56;;;22.98;100.00
13594;BME280;6449;47.666;9.160;2023-07-13T15:51:23;97165.31;;;22.80;100.00
13594;BME280;6449;47.666;9.160;2023-07-13T15:56:21;97152.47;;;22.90;100.00
13594;BME280;6449;47.666;9.160;2023-07-13T16:01:17;97150.81;;;22.89;100.00
13594;BME280;6449;47.666;9.160;2023-07-13T16:06:15;97156.34;;;23.03;100.00
13594;BME280;6449;47.666;9.160;2023-07-13T16:11:17;97153.66;;;23.03;100.00
13594;BME280;6449;47.666;9.160;2023-07-13T16:16:12;97153.88;;;23.01;100.00
13594;BME280;6449;47.666;9.160;2023-07-13T16:21:12;97156.09;;;23.19;100.00
13594;BME280;6449;47.666;9.160;2023-07-13T16:26:26;97152.47;;;23.26;100.00
13594;BME280;6449;47.666;9.160;2023-07-13T16:31:20;97153.44;;;23.40;100.00
13594;BME280;6449;47.666;9.160;2023-07-13T16:36:16;97154.97;;;23.28;100.00
13594;BME280;6449;47.666;9.160;2023-07-13T16:41:10;97159.94;;;23.31;100.00
13594;BME280;6449;47.666;9.160;2023-07-13T16:46:03;97161.81;;;23.16;100.00
13594;BME280;6449;47.666;9.160;2023-07-13T16:50:58;97165.06;;;23.11;100.00
13594;BME280;6449;47.666;9.160;2023-07-13T16:55:52;97160.88;;;23.02;100.00
13594;BME280;6449;47.666;9.160;2023-07-13T17:00:48;97154.53;;;23.24;100.00
13594;BME280;6449;47.666;9.160;2023-07-13T17:05:46;97154.00;;;23.14;100.00
13594;BME280;6449;47.666;9.160;2023-07-13T17:10:42;97160.75;;;22.95;100.00
13594;BME280;6449;47.666;9.160;2023-07-13T17:15:39;97162.19;;;22.91;100.00
13594;BME280;6449;47.666;9.160;2023-07-13T17:20:35;97156.25;;;22.81;100.00
13594;BME280;6449;47.666;9.160;2023-07-13T17:25:34;97157.28;;;22.80;100.00
13594;BME280;6449;47.666;9.160;2023-07-13T17:30:28;97160.03;;;22.72;100.00
13594;BME280;6449;47.666;9.160;2023-07-13T17:35:28;97168.06;;;22.72;100.00
13594;BME280;6449;47.666;9.160;2023-07-13T17:40:22;97160.44;;;22.54;100.00
13594;BME280;6449;47.666;9.160;2023-07-13T17:45:16;97162.66;;;22.51;100.00
13594;BME280;6449;47.666;9.160;2023-07-13T17:50:16;97167.25;;;22.42;100.00
13594;BME280;6449;47.666;9.160;2023-07-13T17:55:18;97162.09;;;22.40;100.00
13594;BME280;6449;47.666;9.160;2023-07-13T18:00:13;97177.56;;;22.30;100.00
13594;BME280;6449;47.666;9.160;2023-07-13T18:05:20;97174.22;;;22.13;100.00
13594;BME280;6449;47.666;9.160;2023-07-13T18:10:18;97173.72;;;22.10;100.00
13594;BME280;6449;47.666;9.160;2023-07-13T18:15:13;97176.00;;;21.98;100.00
13594;BME280;6449;47.666;9.160;2023-07-13T18:20:14;97172.03;;;21.94;100.00
13594;BME280;6449;47.666;9.160;2023-07-13T18:25:13;97184.34;;;21.80;100.00
13594;BME280;6449;47.666;9.160;2023-07-13T18:30:14;97190.84;;;21.63;100.00
13594;BME280;6449;47.666;9.160;2023-07-13T18:35:14;97182.59;;;21.50;100.00
13594;BME280;6449;47.666;9.160;2023-07-13T18:40:15;97192.34;;;21.34;100.00
13594;BME280;6449;47.666;9.160;2023-07-13T18:45:12;97188.72;;;21.27;100.00
13594;BME280;6449;47.666;9.160;2023-07-13T18:50:16;97187.38;;;21.31;100.00
13594;BME280;6449;47.666;9.160;2023-07-13T18:55:17;97198.13;;;21.15;100.00
13594;BME280;6449;47.666;9.160;2023-07-13T19:00:14;97203.06;;;20.95;100.00
13594;BME280;6449;47.666;9.160;2023-07-13T19:05:16;97207.25;;;20.81;100.00
13594;BME280;6449;47.666;9.160;2023-07-13T19:10:15;97206.09;;;20.84;100.00
13594;BME280;6449;47.666;9.160;2023-07-13T19:15:19;97222.81;;;20.70;100.00
13594;BME280;6449;47.666;9.160;2023-07-13T19:20:15;97221.84;;;20.54;100.00
13594;BME280;6449;47.666;9.160;2023-07-13T19:25:15;97221.53;;;20.41;100.00
13594;BME280;6449;47.666;9.160;2023-07-13T19:30:12;97231.81;;;20.44;100.00
13594;BME280;6449;47.666;9.160;2023-07-13T19:35:07;97236.50;;;20.34;100.00
13594;BME280;6449;47.666;9.160;2023-07-13T19:40:00;97244.69;;;20.24;100.00
13594;BME280;6449;47.666;9.160;2023-07-13T19:44:57;97248.69;;;20.12;100.00
13594;BME280;6449;47.666;9.160;2023-07-13T19:49:53;97257.69;;;20.03;100.00
13594;BME280;6449;47.666;9.160;2023-07-13T19:54:50;97257.50;;;20.12;100.00
13594;BME280;6449;47.666;9.160;2023-07-13T19:59:44;97267.50;;;20.10;100.00
13594;BME280;6449;47.666;9.160;2023-07-13T20:04:41;97276.13;;;20.29;100.00
13594;BME280;6449;47.666;9.160;2023-07-13T20:09:36;97287.28;;;20.49;100.00
13594;BME280;6449;47.666;9.160;2023-07-13T20:14:35;97299.59;;;20.50;100.00
13594;BME280;6449;47.666;9.160;2023-07-13T20:19:32;97288.25;;;20.39;100.00
13594;BME280;6449;47.666;9.160;2023-07-13T20:24:26;97299.28;;;20.20;100.00
13594;BME280;6449;47.666;9.160;2023-07-13T20:29:21;97302.59;;;20.30;100.00
13594;BME280;6449;47.666;9.160;2023-07-13T20:34:19;97306.25;;;20.29;100.00
13594;BME280;6449;47.666;9.160;2023-07-13T22:36:41;97328.97;;;18.20;100.00
13594;BME280;6449;47.666;9.160;2023-07-13T22:41:35;97346.91;;;18.26;100.00
13594;BME280;6449;47.666;9.160;2023-07-13T22:46:31;97342.84;;;18.14;100.00
13594;BME280;6449;47.666;9.160;2023-07-13T22:51:26;97347.84;;;17.99;100.00
13594;BME280;6449;47.666;9.160;2023-07-13T23:02:53;97334.59;;;17.82;100.00
13594;BME280;6449;47.666;9.160;2023-07-13T23:46:57;97325.28;;;17.50;100.00
13594;BME280;6449;47.666;9.160;2023-07-13T23:51:54;97327.31;;;17.56;100.00
